Roaring Creek, North Carolina
Current Conditions -  °F | °C
As of 3:55 AM on Sunday 21 Dec 2014 (Local Time) from KTNB Reporting Station
Overcast Overcast  
Wind Chill: 35°   Ceiling: 2900
Heat Index: 35°   Visibility: 7mi
Dew Point: 35°   Wind: 0mph
Humidity: 99%   Direction: NA
Pressure: 30.16"   Gusts: NA
Location:  36.0227°N, 81.9499°W
Report Text: KTNB 210855Z AUTO 00000KT 7SM SCT004 BKN029 OVC080 02/02 A3016 RMK AO2 T00170015
Loading
Personal Weather Stations






























Interactive Weather Map New forecast layout! Learn more

10-Day Weather Forecast

Advertisements
Track Severe Weather on mobile